createdAt,value
2022-10-31T00:01:16.352Z,9.34
2022-10-31T00:03:43.089Z,9.32
2022-10-31T00:06:10.336Z,9.22
2022-10-31T00:08:37.446Z,9.16
2022-10-31T00:11:04.285Z,9.09
2022-10-31T00:13:31.015Z,9.02
2022-10-31T00:15:57.698Z,8.96
2022-10-31T00:18:24.415Z,8.91
2022-10-31T00:20:59.838Z,8.85
2022-10-31T00:23:26.676Z,8.79
2022-10-31T00:25:53.372Z,8.74
2022-10-31T00:30:51.596Z,8.61
2022-10-31T00:33:18.329Z,8.57
2022-10-31T00:35:51.577Z,8.54
2022-10-31T00:38:18.289Z,8.51
2022-10-31T00:40:44.937Z,8.48
2022-10-31T00:45:44.250Z,8.41
2022-10-31T00:48:11.270Z,8.35
2022-10-31T00:50:38.367Z,8.27
2022-10-31T00:53:05.139Z,8.20
2022-10-31T00:55:31.834Z,8.15
2022-10-31T00:57:59.144Z,8.11
2022-10-31T01:00:26.841Z,8.09
2022-10-31T01:02:53.568Z,8.07
2022-10-31T01:05:20.449Z,8.07
2022-10-31T01:07:47.442Z,8.05
2022-10-31T01:10:14.793Z,8.01
2022-10-31T01:12:44.896Z,7.99
2022-10-31T01:15:14.351Z,7.95
2022-10-31T01:17:41.940Z,7.92
2022-10-31T01:20:13.312Z,7.89
2022-10-31T01:22:40.076Z,7.85
2022-10-31T01:25:08.328Z,7.81
2022-10-31T01:27:35.135Z,7.75
2022-10-31T01:30:02.237Z,7.68
2022-10-31T01:32:30.535Z,7.62
2022-10-31T01:34:58.791Z,7.56
2022-10-31T01:37:25.561Z,7.51
2022-10-31T01:39:52.278Z,7.47
2022-10-31T01:42:22.240Z,7.45
2022-10-31T01:44:54.257Z,7.44
2022-10-31T01:47:40.585Z,7.43
2022-10-31T01:50:16.365Z,7.40
2022-10-31T01:52:48.959Z,7.36
2022-10-31T01:55:26.445Z,7.35
2022-10-31T01:58:00.395Z,7.37
2022-10-31T02:00:27.576Z,7.39
2022-10-31T02:02:57.433Z,7.40
2022-10-31T02:05:28.330Z,7.40
2022-10-31T02:08:15.263Z,7.40
2022-10-31T02:10:44.167Z,7.40
2022-10-31T02:13:13.975Z,7.42
2022-10-31T02:15:50.990Z,7.44
2022-10-31T02:18:19.677Z,7.49
2022-10-31T02:20:59.739Z,7.52
2022-10-31T02:23:34.939Z,7.57
2022-10-31T02:26:34.788Z,7.58
2022-10-31T02:29:20.281Z,7.59
2022-10-31T02:31:46.971Z,7.59
2022-10-31T02:34:35.629Z,7.61
2022-10-31T02:37:14.634Z,7.64
2022-10-31T02:39:56.525Z,7.66
2022-10-31T02:42:39.690Z,7.68
2022-10-31T02:45:15.638Z,7.71
2022-10-31T02:47:42.922Z,7.71
2022-10-31T02:50:20.705Z,7.71
2022-10-31T02:52:52.936Z,7.73
2022-10-31T02:55:27.159Z,7.75
2022-10-31T02:58:04.086Z,7.80
2022-10-31T03:00:37.960Z,7.82
2022-10-31T03:03:10.220Z,7.83
2022-10-31T03:05:59.508Z,7.81
2022-10-31T03:08:36.621Z,7.77
2022-10-31T03:11:08.146Z,7.68
2022-10-31T03:13:52.144Z,7.62
2022-10-31T03:16:41.478Z,7.56
2022-10-31T03:19:15.709Z,7.55
2022-10-31T03:21:47.928Z,7.51
2022-10-31T03:24:17.288Z,7.48
2022-10-31T03:26:48.694Z,7.44
2022-10-31T03:29:18.967Z,7.39
2022-10-31T03:31:51.838Z,7.32
2022-10-31T03:34:20.947Z,7.26
2022-10-31T03:36:50.869Z,7.20
2022-10-31T03:39:21.832Z,7.17
2022-10-31T03:41:58.270Z,7.15
2022-10-31T03:44:30.654Z,7.10
2022-10-31T03:47:01.595Z,7.03
2022-10-31T03:49:29.223Z,6.99
2022-10-31T03:52:08.641Z,6.93
2022-10-31T03:54:43.120Z,6.87
2022-10-31T03:57:20.519Z,6.83
2022-10-31T03:59:54.289Z,6.79
2022-10-31T04:02:27.091Z,6.76
2022-10-31T04:04:54.360Z,6.72
2022-10-31T04:07:24.653Z,6.69
2022-10-31T04:09:53.033Z,6.64
2022-10-31T04:12:24.138Z,6.56
2022-10-31T04:15:05.673Z,6.51
2022-10-31T04:17:39.203Z,6.47
2022-10-31T04:20:06.928Z,6.44
2022-10-31T04:22:34.220Z,6.42
2022-10-31T04:25:00.874Z,6.41
2022-10-31T04:27:28.326Z,6.38
2022-10-31T04:29:55.085Z,6.35
2022-10-31T04:32:21.870Z,6.30
2022-10-31T04:34:48.749Z,6.22
2022-10-31T04:37:15.460Z,6.15
2022-10-31T04:39:42.631Z,6.10
2022-10-31T04:42:24.703Z,6.07
2022-10-31T04:44:51.947Z,6.04
2022-10-31T04:47:18.997Z,6.05
2022-10-31T04:49:45.751Z,6.05
2022-10-31T04:52:12.769Z,6.03
2022-10-31T04:54:40.404Z,5.99
2022-10-31T04:57:22.895Z,5.96
2022-10-31T04:59:49.913Z,5.94
2022-10-31T05:02:16.671Z,5.91
2022-10-31T05:04:50.920Z,5.88
2022-10-31T05:07:18.197Z,5.82
2022-10-31T05:09:44.886Z,5.76
2022-10-31T05:12:12.888Z,5.70
2022-10-31T05:14:59.690Z,5.69
2022-10-31T05:17:46.939Z,5.72
2022-10-31T05:20:15.664Z,5.73
2022-10-31T05:23:02.482Z,5.70
2022-10-31T05:25:30.008Z,5.56
2022-10-31T05:27:58.109Z,5.49
2022-10-31T05:30:28.517Z,5.45
2022-10-31T05:32:55.650Z,5.47
2022-10-31T05:35:42.402Z,5.53
2022-10-31T05:38:24.690Z,5.51
2022-10-31T05:40:54.974Z,5.47
2022-10-31T05:43:22.221Z,5.48
2022-10-31T05:45:53.767Z,5.46
2022-10-31T05:48:40.538Z,5.45
2022-10-31T05:51:27.154Z,5.50
2022-10-31T05:53:53.928Z,5.59
2022-10-31T05:56:21.190Z,5.66
2022-10-31T05:58:47.945Z,5.65
2022-10-31T06:01:14.844Z,5.62
2022-10-31T06:03:41.762Z,5.61
2022-10-31T06:06:09.900Z,5.57
2022-10-31T06:08:38.558Z,5.63
2022-10-31T06:11:07.794Z,5.75
2022-10-31T06:13:50.211Z,5.90
2022-10-31T06:16:22.151Z,5.95
2022-10-31T06:18:50.156Z,6.00
2022-10-31T06:21:19.005Z,6.04
2022-10-31T06:23:46.290Z,6.07
2022-10-31T06:26:28.494Z,6.21
2022-10-31T06:28:56.872Z,6.38
2022-10-31T06:31:44.971Z,6.60
2022-10-31T06:34:11.719Z,6.72
2022-10-31T06:36:38.427Z,6.80
2022-10-31T06:39:06.114Z,6.89
2022-10-31T06:41:32.954Z,7.09
2022-10-31T06:44:03.459Z,7.42
2022-10-31T06:46:48.768Z,7.92
2022-10-31T06:49:31.027Z,8.42
2022-10-31T06:52:01.950Z,8.72
2022-10-31T06:54:29.793Z,8.89
2022-10-31T06:56:56.898Z,9.12
2022-10-31T06:59:25.144Z,9.37
2022-10-31T07:02:11.554Z,9.68
2022-10-31T07:04:39.477Z,10.19
2022-10-31T07:07:06.282Z,10.75
2022-10-31T07:09:33.222Z,11.32
2022-10-31T07:12:02.383Z,11.91
2022-10-31T07:14:29.854Z,12.50
2022-10-31T07:16:56.657Z,13.05
2022-10-31T07:19:27.186Z,13.56
2022-10-31T07:21:54.285Z,14.00
2022-10-31T07:24:20.980Z,14.37
2022-10-31T07:27:03.521Z,14.72
2022-10-31T07:29:30.372Z,14.99
2022-10-31T07:31:57.210Z,15.25
2022-10-31T07:34:26.150Z,15.56
2022-10-31T07:37:08.591Z,15.97
2022-10-31T07:39:36.517Z,16.35
2022-10-31T07:42:03.333Z,16.68
2022-10-31T07:44:31.302Z,16.96
2022-10-31T07:47:13.708Z,17.22
2022-10-31T07:49:56.039Z,17.46
2022-10-31T07:52:38.726Z,17.68
2022-10-31T07:55:21.032Z,17.84
2022-10-31T07:57:57.037Z,18.02
2022-10-31T08:00:23.921Z,18.09
2022-10-31T08:02:59.207Z,18.25
2022-10-31T08:05:42.252Z,18.51
2022-10-31T08:08:25.177Z,18.86
2022-10-31T08:10:51.862Z,19.17
2022-10-31T08:13:18.589Z,19.50
2022-10-31T08:15:51.154Z,19.85
2022-10-31T08:18:18.687Z,20.22
2022-10-31T08:20:45.821Z,20.62
2022-10-31T08:23:14.485Z,20.95
2022-10-31T08:25:42.993Z,21.16
2022-10-31T08:28:12.500Z,21.35
2022-10-31T08:30:41.046Z,21.53
2022-10-31T08:33:23.084Z,21.77
2022-10-31T08:36:06.138Z,21.98
2022-10-31T08:38:51.678Z,22.29
2022-10-31T08:41:18.621Z,22.57
2022-10-31T08:43:45.830Z,22.72
2022-10-31T08:46:13.021Z,22.94
2022-10-31T08:48:40.511Z,23.03
2022-10-31T08:51:07.904Z,22.91
2022-10-31T08:53:34.590Z,22.88
2022-10-31T08:56:21.488Z,22.86
2022-10-31T08:58:48.194Z,22.73
2022-10-31T09:01:15.634Z,22.54
2022-10-31T09:03:43.376Z,22.38
2022-10-31T09:06:11.022Z,22.26
2022-10-31T09:08:38.114Z,22.08
2022-10-31T09:11:05.579Z,21.96
2022-10-31T09:13:53.839Z,21.84
2022-10-31T09:16:35.752Z,21.69
2022-10-31T09:19:05.212Z,21.68
2022-10-31T09:21:35.596Z,21.67
2022-10-31T09:24:02.482Z,21.68
2022-10-31T09:26:29.185Z,21.64
2022-10-31T09:29:04.592Z,21.57
2022-10-31T09:31:31.526Z,21.48
2022-10-31T09:34:03.951Z,21.45
2022-10-31T09:36:34.052Z,21.48
2022-10-31T09:39:16.379Z,21.51
2022-10-31T09:42:04.516Z,21.51
2022-10-31T09:44:54.436Z,21.55
2022-10-31T09:47:26.752Z,21.56
2022-10-31T09:50:20.745Z,21.54
2022-10-31T09:52:58.492Z,21.55
2022-10-31T09:55:38.431Z,21.46
2022-10-31T09:58:06.684Z,21.46
2022-10-31T10:00:34.435Z,21.45
2022-10-31T10:03:20.012Z,21.47
2022-10-31T10:05:54.792Z,21.47
2022-10-31T10:08:33.131Z,21.42
2022-10-31T10:11:50.526Z,21.35
2022-10-31T10:14:18.482Z,21.33
2022-10-31T10:17:13.526Z,21.32
2022-10-31T10:19:49.684Z,21.36
2022-10-31T10:22:38.722Z,21.48
2022-10-31T10:25:17.926Z,21.48
2022-10-31T10:28:01.183Z,21.56
2022-10-31T10:30:42.858Z,21.71
2022-10-31T10:33:14.451Z,21.67
2022-10-31T10:35:50.219Z,21.59
2022-10-31T10:38:20.511Z,21.52
2022-10-31T10:40:48.127Z,21.59
2022-10-31T10:43:38.495Z,21.69
2022-10-31T10:46:43.503Z,21.81
2022-10-31T10:49:25.600Z,21.96
2022-10-31T10:52:07.457Z,22.09
2022-10-31T10:54:59.237Z,22.20
2022-10-31T10:57:56.617Z,22.27
2022-10-31T11:00:25.023Z,22.33
2022-10-31T11:02:52.684Z,22.38
2022-10-31T11:05:25.760Z,22.40
2022-10-31T11:07:52.754Z,22.40
2022-10-31T11:10:19.678Z,22.47
2022-10-31T11:13:02.002Z,22.67
2022-10-31T11:15:31.972Z,22.87
2022-10-31T11:17:58.824Z,23.01
2022-10-31T11:20:32.402Z,23.26
2022-10-31T11:23:04.199Z,23.54
2022-10-31T11:25:31.925Z,23.82
2022-10-31T11:28:04.497Z,24.05
2022-10-31T11:30:36.916Z,24.18
2022-10-31T11:33:05.170Z,24.40
2022-10-31T11:35:32.321Z,24.45
2022-10-31T11:38:01.500Z,24.45
2022-10-31T11:40:29.100Z,24.62
2022-10-31T11:43:00.165Z,24.75
2022-10-31T11:45:26.838Z,24.90
2022-10-31T11:47:59.974Z,25.10
2022-10-31T11:50:36.211Z,25.28
2022-10-31T11:53:04.416Z,25.40
2022-10-31T11:55:35.926Z,25.49
2022-10-31T11:58:03.864Z,25.59
2022-10-31T12:00:32.404Z,25.66
2022-10-31T12:03:29.822Z,25.70
2022-10-31T12:06:03.940Z,25.68
2022-10-31T12:08:33.708Z,25.92
2022-10-31T12:11:14.649Z,26.21
2022-10-31T12:13:49.397Z,26.63
2022-10-31T12:16:29.782Z,27.03
2022-10-31T12:19:04.010Z,27.50
2022-10-31T12:21:53.461Z,27.90
2022-10-31T12:24:21.697Z,28.25
2022-10-31T12:27:19.240Z,28.35
2022-10-31T12:29:56.643Z,28.56
2022-10-31T12:32:50.698Z,28.69
2022-10-31T12:35:46.238Z,28.71
2022-10-31T12:38:31.867Z,28.76
2022-10-31T12:41:24.913Z,28.71
2022-10-31T12:44:03.881Z,28.87
2022-10-31T12:46:37.912Z,28.97
2022-10-31T12:49:20.963Z,29.20
2022-10-31T12:51:52.023Z,29.45
2022-10-31T12:54:27.428Z,29.61
2022-10-31T12:57:24.516Z,29.87
2022-10-31T12:59:58.935Z,30.03
2022-10-31T13:02:32.192Z,30.10
2022-10-31T13:05:06.209Z,30.33
2022-10-31T13:07:38.723Z,30.51
2022-10-31T13:10:06.541Z,30.45
2022-10-31T13:12:37.427Z,30.49
2022-10-31T13:15:26.147Z,30.68
2022-10-31T13:17:57.680Z,30.83
2022-10-31T13:20:29.817Z,30.88
2022-10-31T13:23:49.011Z,30.75
2022-10-31T13:26:15.632Z,30.47
2022-10-31T13:28:53.565Z,30.28
2022-10-31T13:31:21.779Z,30.33
2022-10-31T13:33:53.699Z,30.40
2022-10-31T13:36:26.289Z,30.51
2022-10-31T13:38:55.086Z,30.60
2022-10-31T13:41:23.000Z,30.64
2022-10-31T13:44:13.047Z,30.68
2022-10-31T13:49:29.587Z,30.65
2022-10-31T13:52:11.596Z,30.62
2022-10-31T13:54:39.612Z,30.54
2022-10-31T13:57:37.639Z,30.47
2022-10-31T14:00:08.786Z,30.34
2022-10-31T14:02:48.901Z,30.24
2022-10-31T14:05:26.823Z,30.09
2022-10-31T14:07:56.409Z,29.96
2022-10-31T14:10:37.427Z,29.82
2022-10-31T14:13:09.693Z,29.68
2022-10-31T14:15:40.564Z,29.47
2022-10-31T14:18:24.775Z,29.14
2022-10-31T14:20:51.550Z,28.88
2022-10-31T14:23:36.184Z,28.65
2022-10-31T14:26:19.668Z,28.36
2022-10-31T14:28:48.082Z,28.03
2022-10-31T14:31:33.171Z,27.68
2022-10-31T14:34:03.016Z,27.10
2022-10-31T14:36:46.525Z,26.48
2022-10-31T14:39:30.560Z,25.77
2022-10-31T14:42:14.020Z,25.11
2022-10-31T14:45:11.637Z,24.46
2022-10-31T14:47:39.407Z,23.83
2022-10-31T14:50:24.541Z,23.32
2022-10-31T14:52:57.434Z,22.79
2022-10-31T14:55:25.591Z,22.29
2022-10-31T14:58:05.304Z,21.80
2022-10-31T15:00:34.917Z,21.30
2022-10-31T15:03:17.086Z,20.85
2022-10-31T15:05:50.392Z,20.39
2022-10-31T15:08:34.081Z,19.97
2022-10-31T15:11:10.216Z,19.53
2022-10-31T15:13:46.718Z,19.13
2022-10-31T15:16:16.398Z,18.74
2022-10-31T15:18:51.008Z,18.37
2022-10-31T15:21:21.443Z,18.00
2022-10-31T15:23:50.855Z,17.66
2022-10-31T15:26:21.301Z,17.33
2022-10-31T15:29:04.693Z,17.00
2022-10-31T15:31:32.239Z,16.67
2022-10-31T15:34:05.213Z,16.39
2022-10-31T15:36:37.358Z,16.12
2022-10-31T15:39:05.572Z,15.88
2022-10-31T15:41:39.850Z,15.67
2022-10-31T15:44:29.098Z,15.47
2022-10-31T15:47:16.875Z,15.25
2022-10-31T15:49:55.514Z,15.03
2022-10-31T15:52:39.965Z,14.81
2022-10-31T15:55:10.350Z,14.58
2022-10-31T15:57:43.544Z,14.36
2022-10-31T16:00:28.501Z,14.14
2022-10-31T16:03:11.751Z,13.90
2022-10-31T16:05:44.856Z,13.70
2022-10-31T16:08:30.847Z,13.52
2022-10-31T16:10:58.439Z,13.35
2022-10-31T16:13:30.118Z,13.24
2022-10-31T16:16:32.949Z,13.10
2022-10-31T16:18:51.970Z,12.97
2022-10-31T16:21:27.426Z,12.85
2022-10-31T16:23:58.391Z,12.71
2022-10-31T16:26:26.266Z,12.58
2022-10-31T16:29:03.261Z,12.44
2022-10-31T16:31:39.666Z,12.28
2022-10-31T16:34:26.255Z,12.16
2022-10-31T16:36:54.040Z,12.04
2022-10-31T16:39:21.425Z,11.95
2022-10-31T16:41:52.804Z,11.86
2022-10-31T16:44:23.755Z,11.77
2022-10-31T16:47:07.022Z,11.67
2022-10-31T16:49:33.905Z,11.56
2022-10-31T16:52:00.573Z,11.45
2022-10-31T16:54:30.182Z,11.35
2022-10-31T16:56:59.818Z,11.28
2022-10-31T16:59:27.730Z,11.21
2022-10-31T17:01:55.908Z,11.13
2022-10-31T17:04:23.036Z,11.05
2022-10-31T17:06:49.773Z,10.97
2022-10-31T17:09:16.536Z,10.87
2022-10-31T17:11:49.768Z,10.76
2022-10-31T17:14:18.003Z,10.68
2022-10-31T17:16:44.762Z,10.60
2022-10-31T17:19:12.910Z,10.52
2022-10-31T17:21:40.829Z,10.43
2022-10-31T17:24:12.706Z,10.38
2022-10-31T17:26:39.411Z,10.33
2022-10-31T17:29:06.226Z,10.28
2022-10-31T17:31:36.360Z,10.22
2022-10-31T17:34:05.295Z,10.16
2022-10-31T17:36:34.450Z,10.09
2022-10-31T17:39:01.560Z,10.03
2022-10-31T17:41:28.223Z,9.98
2022-10-31T17:43:56.235Z,9.96
2022-10-31T17:46:23.148Z,9.93
2022-10-31T17:48:50.000Z,9.88
2022-10-31T17:51:17.162Z,9.82
2022-10-31T17:53:43.874Z,9.78
2022-10-31T17:56:11.229Z,9.75
2022-10-31T17:58:38.342Z,9.74
2022-10-31T18:01:16.383Z,9.73
2022-10-31T18:03:43.881Z,9.70
2022-10-31T18:06:12.132Z,9.65
2022-10-31T18:08:40.590Z,9.61
2022-10-31T18:11:09.785Z,9.54
2022-10-31T18:13:37.664Z,9.46
2022-10-31T18:16:15.587Z,9.39
2022-10-31T18:18:42.434Z,9.35
2022-10-31T18:21:24.621Z,9.31
2022-10-31T18:23:55.981Z,9.28
2022-10-31T18:26:24.349Z,9.22
2022-10-31T18:28:51.811Z,9.17
2022-10-31T18:31:19.159Z,9.11
2022-10-31T18:33:46.455Z,9.04
2022-10-31T18:36:13.328Z,8.99
2022-10-31T18:38:41.745Z,8.95
2022-10-31T18:41:09.287Z,8.93
2022-10-31T18:43:36.021Z,8.90
2022-10-31T18:46:04.835Z,8.87
2022-10-31T18:48:32.048Z,8.85
2022-10-31T18:53:31.630Z,8.77
2022-10-31T18:55:59.205Z,8.73
2022-10-31T18:58:27.274Z,8.68
2022-10-31T19:00:55.559Z,8.65
2022-10-31T19:03:26.177Z,8.62
2022-10-31T19:05:55.933Z,8.59
2022-10-31T19:08:22.873Z,8.56
2022-10-31T19:10:49.641Z,8.52
2022-10-31T19:13:16.352Z,8.44
2022-10-31T19:15:43.584Z,8.38
2022-10-31T19:18:10.366Z,8.34
2022-10-31T19:20:39.417Z,8.32
2022-10-31T19:23:06.880Z,8.31
2022-10-31T19:25:33.650Z,8.29
2022-10-31T19:28:00.759Z,8.25
2022-10-31T19:30:27.756Z,8.20
2022-10-31T19:32:56.474Z,8.13
2022-10-31T19:35:23.134Z,8.06
2022-10-31T19:37:49.804Z,8.00
2022-10-31T19:40:16.688Z,7.93
2022-10-31T19:42:43.382Z,7.90
2022-10-31T19:45:11.151Z,7.89
2022-10-31T19:47:38.101Z,7.90
2022-10-31T19:50:05.143Z,7.92
2022-10-31T19:52:34.720Z,7.92
2022-10-31T19:55:01.661Z,7.90
2022-10-31T19:57:56.276Z,7.87
2022-10-31T20:00:15.528Z,7.85
2022-10-31T20:02:42.181Z,7.85
2022-10-31T20:05:09.291Z,7.82
2022-10-31T20:07:36.129Z,7.81
2022-10-31T20:10:02.903Z,7.79
2022-10-31T20:12:29.645Z,7.77
2022-10-31T20:14:56.363Z,7.72
2022-10-31T20:17:23.079Z,7.69
2022-10-31T20:19:49.899Z,7.64
2022-10-31T20:22:16.781Z,7.60
2022-10-31T20:24:43.596Z,7.56
2022-10-31T20:27:10.297Z,7.53
2022-10-31T20:29:36.967Z,7.53
2022-10-31T20:32:03.893Z,7.52
2022-10-31T20:34:30.855Z,7.50
2022-10-31T20:36:57.656Z,7.50
2022-10-31T20:39:24.730Z,7.48
2022-10-31T20:41:51.482Z,7.48
2022-10-31T20:44:18.174Z,7.46
2022-10-31T20:46:44.985Z,7.43
2022-10-31T20:49:11.665Z,7.40
2022-10-31T20:51:38.628Z,7.38
2022-10-31T20:54:06.868Z,7.34
2022-10-31T20:56:33.674Z,7.29
2022-10-31T20:59:00.436Z,7.23
2022-10-31T21:01:30.264Z,7.18
2022-10-31T21:03:58.733Z,7.18
2022-10-31T21:06:26.068Z,7.19
2022-10-31T21:08:53.849Z,7.19
2022-10-31T21:11:23.133Z,7.20
2022-10-31T21:13:50.789Z,7.17
2022-10-31T21:16:20.939Z,7.15
2022-10-31T21:18:49.399Z,7.14
2022-10-31T21:21:18.184Z,7.14
2022-10-31T21:23:45.825Z,7.14
2022-10-31T21:26:22.740Z,7.13
2022-10-31T21:28:50.692Z,7.10
2022-10-31T21:31:18.545Z,7.06
2022-10-31T21:33:46.291Z,7.00
2022-10-31T21:36:14.326Z,6.97
2022-10-31T21:38:41.599Z,6.98
2022-10-31T21:41:09.761Z,7.02
2022-10-31T21:43:38.324Z,7.03
2022-10-31T21:46:07.602Z,7.04
2022-10-31T21:48:39.091Z,7.04
2022-10-31T21:51:09.047Z,7.04
2022-10-31T21:53:52.196Z,7.05
2022-10-31T21:56:18.918Z,7.06
2022-10-31T21:58:46.067Z,7.08
2022-10-31T22:01:12.903Z,7.12
2022-10-31T22:03:41.283Z,7.14
2022-10-31T22:06:09.944Z,7.17
2022-10-31T22:08:37.008Z,7.15
2022-10-31T22:11:05.494Z,7.13
2022-10-31T22:13:33.915Z,7.08
2022-10-31T22:16:02.228Z,7.04
2022-10-31T22:18:29.185Z,6.99
2022-10-31T22:21:20.065Z,6.93
2022-10-31T22:23:52.106Z,6.85
2022-10-31T22:26:19.497Z,6.80
2022-10-31T22:28:50.355Z,6.77
2022-10-31T22:31:19.055Z,6.72
2022-10-31T22:33:47.183Z,6.70
2022-10-31T22:36:16.956Z,6.68
2022-10-31T22:38:45.170Z,6.66
2022-10-31T22:41:14.203Z,6.65
2022-10-31T22:43:41.509Z,6.67
2022-10-31T22:46:12.495Z,6.68
2022-10-31T22:48:43.187Z,6.67
2022-10-31T22:51:13.638Z,6.63
2022-10-31T22:53:41.015Z,6.61
2022-10-31T22:56:10.121Z,6.60
2022-10-31T22:58:37.145Z,6.60
2022-10-31T23:01:09.221Z,6.63
2022-10-31T23:03:36.871Z,6.66
2022-10-31T23:06:05.541Z,6.68
2022-10-31T23:08:35.356Z,6.69
2022-10-31T23:11:04.414Z,6.67
2022-10-31T23:13:47.250Z,6.65
2022-10-31T23:16:14.057Z,6.61
2022-10-31T23:18:55.737Z,6.59
2022-10-31T23:21:39.864Z,6.57
2022-10-31T23:24:06.709Z,6.56
2022-10-31T23:26:48.938Z,6.53
2022-10-31T23:29:15.684Z,6.49
2022-10-31T23:31:42.392Z,6.41
2022-10-31T23:34:09.482Z,6.34
2022-10-31T23:36:36.178Z,6.27
2022-10-31T23:39:02.952Z,6.22
2022-10-31T23:41:29.702Z,6.19
2022-10-31T23:43:56.646Z,6.17
2022-10-31T23:46:23.338Z,6.12
2022-10-31T23:48:51.009Z,6.07
2022-10-31T23:51:17.799Z,6.01
2022-10-31T23:53:45.727Z,5.96
2022-10-31T23:56:13.774Z,5.91
2022-10-31T23:58:40.982Z,5.87
